Time;durP1;ratioP1;P1;durP2;ratioP2;P2;SDS_P1;SDS_P2;PMS_P1;PMS_P2;Temp;Humidity;BMP_temperature;BMP_pressure;BME280_temperature;BME280_humidity;BME280_pressure;Samples;Min_cycle;Max_cycle;Signal;HPM_P1;HPM_P2
2021/03/20 00:01:39;;;;;;;21.13;14.05;;;;;;;3.98;55.78;94607.44;4229937;28;20051;-72
2021/03/20 00:03:41;;;;;;;17.80;13.48;;;;;;;3.95;55.34;94612.84;4230170;28;20048;-71
2021/03/20 00:05:42;;;;;;;17.25;12.90;;;;;;;3.95;55.79;94612.03;4229107;28;20047;-71
2021/03/20 00:07:44;;;;;;;19.45;13.57;;;;;;;3.91;55.78;94621.81;4212487;28;20097;-71
2021/03/20 00:09:49;;;;;;;18.02;13.85;;;;;;;3.92;55.39;94620.88;4217396;28;20051;-70
2021/03/20 00:11:51;;;;;;;20.52;13.95;;;;;;;3.95;55.68;94618.03;4194416;28;20560;-70
2021/03/20 00:13:55;;;;;;;16.75;13.15;;;;;;;3.96;55.31;94624.03;4197320;28;21784;-71
2021/03/20 00:15:57;;;;;;;18.75;13.60;;;;;;;3.99;55.49;94622.03;4195601;28;20099;-72
2021/03/20 00:17:59;;;;;;;17.77;13.40;;;;;;;4.02;55.53;94623.56;4229856;28;20052;-71
2021/03/20 00:20:01;;;;;;;16.58;12.50;;;;;;;3.99;55.28;94627.22;4193998;28;20511;-72
2021/03/20 00:22:02;;;;;;;18.23;13.18;;;;;;;4.00;55.56;94628.03;4230192;28;20138;-70
2021/03/20 00:24:04;;;;;;;15.85;12.68;;;;;;;3.99;55.70;94623.81;4196106;28;20521;-71
2021/03/20 00:26:06;;;;;;;18.27;12.52;;;;;;;4.03;55.38;94639.00;4211642;28;20426;-71
2021/03/20 00:28:10;;;;;;;25.23;12.93;;;;;;;3.99;55.71;94631.59;4230483;28;20050;-71
2021/03/20 00:30:12;;;;;;;17.88;12.75;;;;;;;3.95;55.40;94633.59;4234361;28;20478;-70
2021/03/20 00:32:14;;;;;;;17.50;12.60;;;;;;;3.99;55.59;94629.81;4211530;28;20522;-70
2021/03/20 00:34:16;;;;;;;15.93;12.20;;;;;;;4.00;55.89;94630.63;4199400;28;20036;-70
2021/03/20 00:36:18;;;;;;;17.13;12.40;;;;;;;3.99;55.13;94629.00;4188958;28;20189;-71
2021/03/20 00:38:36;;;;;;;14.65;12.23;;;;;;;3.99;55.25;94623.81;4223262;28;20054;-70
2021/03/20 00:40:37;;;;;;;17.92;11.90;;;;;;;4.00;55.06;94621.09;4210206;28;20422;-72
2021/03/20 00:42:39;;;;;;;15.20;11.73;;;;;;;4.01;55.17;94614.97;4210767;28;20056;-71
2021/03/20 00:44:40;;;;;;;14.48;11.10;;;;;;;4.02;55.08;94608.84;4193665;28;20044;-71
2021/03/20 00:46:42;;;;;;;14.60;11.13;;;;;;;4.02;55.13;94610.59;4230298;28;20079;-71
2021/03/20 00:48:44;;;;;;;15.65;12.15;;;;;;;4.05;54.78;94613.78;4222526;28;20402;-71
2021/03/20 00:50:46;;;;;;;15.60;11.48;;;;;;;4.08;54.95;94610.94;4216057;28;20067;-70
2021/03/20 00:52:47;;;;;;;15.20;11.40;;;;;;;4.11;54.54;94617.66;4209484;28;20056;-71
2021/03/20 00:54:48;;;;;;;16.90;11.80;;;;;;;4.13;54.35;94612.34;4228043;28;20043;-70
2021/03/20 00:56:50;;;;;;;13.63;11.27;;;;;;;4.13;54.36;94614.94;4235865;28;20060;-84
2021/03/20 00:58:51;;;;;;;14.23;10.88;;;;;;;4.14;55.03;94614.00;4218547;28;20126;-83
2021/03/20 01:00:58;;;;;;;13.98;10.55;;;;;;;4.14;54.36;94614.00;4235895;28;20088;-83
2021/03/20 01:02:59;;;;;;;11.57;9.48;;;;;;;4.14;54.87;94608.81;4234727;28;20048;-84
2021/03/20 01:05:01;;;;;;;15.13;10.25;;;;;;;4.14;54.60;94620.00;4248905;27;20039;-82
2021/03/20 01:07:02;;;;;;;14.15;10.65;;;;;;;4.15;54.24;94616.47;4218200;28;20075;-84
2021/03/20 01:09:06;;;;;;;15.13;11.25;;;;;;;4.00;54.93;94621.09;4211175;28;20125;-82
2021/03/20 01:11:08;;;;;;;15.18;11.75;;;;;;;3.63;55.72;94620.53;4234371;28;20047;-83
2021/03/20 01:13:09;;;;;;;35.55;21.55;;;;;;;3.10;57.08;94620.28;4218630;28;20048;-83
2021/03/20 01:15:12;;;;;;;33.30;19.73;;;;;;;2.94;57.99;94623.22;4236175;28;20125;-82
2021/03/20 01:17:13;;;;;;;37.22;21.90;;;;;;;3.04;57.93;94622.41;4220659;28;20044;-83
2021/03/20 01:19:15;;;;;;;34.08;21.83;;;;;;;3.07;57.53;94616.97;4229733;28;20116;-85
2021/03/20 01:21:16;;;;;;;34.95;21.77;;;;;;;3.09;57.68;94609.13;4237322;28;20568;-84
2021/03/20 01:23:18;;;;;;;34.60;21.88;;;;;;;2.61;58.58;94614.44;4236693;28;20047;-83
2021/03/20 01:25:19;;;;;;;35.35;22.05;;;;;;;2.22;59.75;94621.56;4218723;28;20048;-84
2021/03/20 01:27:20;;;;;;;35.85;21.75;;;;;;;1.94;60.33;94620.13;4220874;28;20056;-82
2021/03/20 01:29:22;;;;;;;35.63;23.10;;;;;;;1.88;60.30;94625.72;4237775;28;20044;-84
2021/03/20 01:31:23;;;;;;;37.15;22.27;;;;;;;2.00;60.60;94617.09;4219987;28;20083;-82
2021/03/20 01:33:25;;;;;;;38.10;20.77;;;;;;;2.25;60.42;94622.16;4238979;28;20058;-82
2021/03/20 01:35:27;;;;;;;32.15;20.35;;;;;;;2.51;59.95;94616.03;4220267;28;20055;-83
2021/03/20 01:37:28;;;;;;;31.90;19.80;;;;;;;2.65;59.40;94621.03;4206652;28;20056;-84
2021/03/20 01:39:29;;;;;;;31.80;19.77;;;;;;;2.62;59.53;94629.00;4224589;28;20062;-84
2021/03/20 01:41:31;;;;;;;28.42;18.10;;;;;;;2.57;60.33;94631.91;4243827;27;20054;-84
2021/03/20 01:43:35;;;;;;;24.70;16.70;;;;;;;2.37;61.30;94635.97;4223484;28;20048;-83
2021/03/20 01:45:38;;;;;;;27.52;16.88;;;;;;;2.31;61.83;94631.22;4243088;28;20108;-83
2021/03/20 01:47:47;;;;;;;24.73;15.95;;;;;;;2.43;61.41;94627.78;4230681;28;20058;-83
2021/03/20 01:49:49;;;;;;;27.50;16.48;;;;;;;2.58;61.06;94640.50;4206410;28;20055;-84
2021/03/20 01:52:11;;;;;;;22.45;14.57;;;;;;;2.61;60.92;94629.94;4221075;28;20465;-84
2021/03/20 01:54:12;;;;;;;19.35;13.60;;;;;;;2.77;60.53;94637.38;4240584;27;20055;-70
2021/03/20 01:56:22;;;;;;;22.75;14.73;;;;;;;2.80;60.30;94635.41;4238312;27;20475;-71
2021/03/20 01:58:24;;;;;;;23.33;14.80;;;;;;;2.93;60.08;94627.56;4203385;28;20054;-72
2021/03/20 02:00:32;;;;;;;22.08;14.18;;;;;;;3.05;59.74;94633.56;4220475;28;20774;-70
2021/03/20 02:02:35;;;;;;;21.45;15.57;;;;;;;3.11;59.61;94627.13;4195715;28;20039;-69
2021/03/20 02:04:36;;;;;;;21.85;14.77;;;;;;;3.14;58.83;94630.31;4209781;28;20457;-71
2021/03/20 02:06:38;;;;;;;25.73;16.33;;;;;;;3.20;59.16;94636.78;4219812;28;20051;-71
2021/03/20 02:08:44;;;;;;;21.10;14.80;;;;;;;3.25;58.98;94630.31;4208796;28;20051;-70
2021/03/20 02:10:47;;;;;;;21.67;14.55;;;;;;;3.28;58.80;94624.91;4193749;28;20128;-71
2021/03/20 02:12:55;;;;;;;25.60;16.23;;;;;;;3.33;58.79;94623.72;4208645;28;20047;-71
2021/03/20 02:15:17;;;;;;;21.15;15.35;;;;;;;3.40;58.93;94624.91;4209817;28;20127;-70
2021/03/20 02:17:40;;;;;;;25.50;16.13;;;;;;;3.41;58.97;94624.78;4193598;28;20055;-69
2021/03/20 02:20:06;;;;;;;28.95;17.88;;;;;;;3.45;59.03;94630.56;4218349;27;20475;-71
2021/03/20 02:22:21;;;;;;;27.05;18.15;;;;;;;3.42;59.69;94617.84;4224698;27;20047;-70
2021/03/20 02:24:37;;;;;;;27.02;18.67;;;;;;;3.37;60.03;94625.97;4236347;27;20047;-70
2021/03/20 02:26:50;;;;;;;28.73;19.92;;;;;;;2.97;61.75;94625.56;4215065;28;20537;-71
2021/03/20 02:29:13;;;;;;;32.95;20.75;;;;;;;2.75;63.00;94632.31;4228717;28;20051;-71
2021/03/20 02:31:53;;;;;;;31.73;19.98;;;;;;;2.35;64.40;94635.25;4241310;27;20051;-70
2021/03/20 02:34:16;;;;;;;28.77;19.50;;;;;;;1.77;67.13;94642.78;4208957;28;20078;-71
2021/03/20 02:36:20;;;;;;;29.85;19.90;;;;;;;1.66;68.03;94639.28;4214046;28;20523;-70
2021/03/20 02:38:51;;;;;;;37.03;21.73;;;;;;;1.71;67.97;94643.22;4227209;28;20050;-69
2021/03/20 02:41:26;;;;;;;30.45;20.73;;;;;;;1.77;68.41;94639.38;4216207;28;20052;-82
2021/03/20 02:43:56;;;;;;;34.13;21.55;;;;;;;1.95;67.49;94645.00;4234035;28;20044;-85
2021/03/20 02:46:30;;;;;;;32.25;20.23;;;;;;;2.21;66.37;94636.22;4148853;28;20049;-84
2021/03/20 02:48:46;;;;;;;29.23;18.52;;;;;;;2.44;65.48;94631.16;4219017;28;20131;-83
2021/03/20 02:51:17;;;;;;;28.90;18.90;;;;;;;2.63;64.41;94633.25;4219962;28;20219;-82
2021/03/20 02:53:23;;;;;;;27.05;16.98;;;;;;;2.72;64.06;94634.34;4223408;28;20459;-83
2021/03/20 02:55:30;;;;;;;25.00;16.60;;;;;;;2.69;63.93;94632.81;4203850;28;20044;-83
2021/03/20 02:57:57;;;;;;;27.45;17.42;;;;;;;2.60;64.14;94639.47;4221012;28;20055;-83
2021/03/20 03:00:01;;;;;;;24.52;16.33;;;;;;;2.57;64.41;94639.69;4225929;28;20069;-83
2021/03/20 03:02:03;;;;;;;;;;;;;;;2.60;64.21;94636.03;4221241;28;20059;-82
2021/03/20 03:04:07;;;;;;;23.25;15.95;;;;;;;2.69;64.12;94643.16;4225105;28;19919;-82
2021/03/20 03:06:39;;;;;;;24.48;16.25;;;;;;;2.79;63.66;94633.75;4225614;28;20044;-81
2021/03/20 03:08:44;;;;;;;26.90;16.58;;;;;;;2.92;63.10;94635.44;4229801;28;20052;-81
2021/03/20 03:10:49;;;;;;;26.65;17.55;;;;;;;2.98;62.86;94629.81;4231837;28;20112;-83
2021/03/20 03:12:56;;;;;;;24.98;16.52;;;;;;;3.04;62.72;94631.94;4225358;28;20064;-84
2021/03/20 03:15:05;;;;;;;25.08;16.67;;;;;;;3.14;62.67;94638.09;4232198;28;20044;-83
2021/03/20 03:17:08;;;;;;;26.20;17.20;;;;;;;3.21;62.38;94639.25;4224485;28;20048;-85
2021/03/20 03:19:13;;;;;;;28.23;16.88;;;;;;;3.23;62.21;94633.97;4224101;28;20048;-84
2021/03/20 03:21:17;;;;;;;28.75;17.52;;;;;;;3.14;62.30;94632.91;4226052;28;20060;-82
2021/03/20 03:23:22;;;;;;;26.48;17.52;;;;;;;3.06;62.87;94636.06;4248859;28;20126;-84
2021/03/20 03:25:25;;;;;;;25.13;18.13;;;;;;;2.85;63.98;94642.84;4230511;28;20036;-83
2021/03/20 03:27:29;;;;;;;23.83;16.42;;;;;;;2.70;64.83;94639.59;4235164;28;20080;-69
2021/03/20 03:29:32;;;;;;;;;;;;;;;2.42;66.24;94639.03;4197240;28;20446;-70
2021/03/20 03:31:37;;;;;;;27.77;18.92;;;;;;;2.35;66.14;94635.25;4221364;28;19965;-72
2021/03/20 03:33:43;;;;;;;28.88;18.55;;;;;;;2.54;65.55;94644.25;4231175;27;20063;-71
2021/03/20 03:36:05;;;;;;;28.10;18.90;;;;;;;2.64;64.82;94645.22;4236113;27;20131;-70
2021/03/20 03:38:28;;;;;;;29.83;20.35;;;;;;;2.57;65.06;94649.22;4227858;28;20085;-69
2021/03/20 03:40:41;;;;;;;33.08;22.52;;;;;;;2.64;64.39;94647.81;4228456;28;20573;-69
2021/03/20 03:42:42;;;;;;;36.03;23.15;;;;;;;2.43;65.45;94643.28;4211401;28;20556;-69
2021/03/20 03:44:45;;;;;;;35.10;22.48;;;;;;;2.50;65.51;94654.00;4231050;28;20047;-70
2021/03/20 03:46:48;;;;;;;35.05;22.70;;;;;;;2.61;65.21;94654.03;4230329;28;20501;-70
2021/03/20 03:48:54;;;;;;;40.00;22.67;;;;;;;2.79;64.57;94646.69;4211627;28;20488;-71
2021/03/20 03:51:07;;;;;;;35.67;24.00;;;;;;;2.95;64.41;94643.81;4211181;28;20055;-69
2021/03/20 03:53:09;;;;;;;36.88;22.73;;;;;;;2.91;64.48;94646.75;4234234;27;20517;-70
2021/03/20 03:55:11;;;;;;;34.22;23.75;;;;;;;2.94;64.58;94636.16;4217421;28;20509;-70
2021/03/20 03:57:28;;;;;;;34.78;23.40;;;;;;;2.98;64.48;94635.81;4225704;28;20051;-70
2021/03/20 03:59:57;;;;;;;31.65;21.58;;;;;;;3.02;64.45;94636.41;4215405;28;20483;-71
2021/03/20 04:02:20;;;;;;;33.78;22.10;;;;;;;3.13;64.03;94639.00;4226234;28;20052;-71
2021/03/20 04:04:39;;;;;;;34.30;22.30;;;;;;;3.19;63.87;94632.56;4227436;27;20056;-71
2021/03/20 04:07:11;;;;;;;35.97;22.77;;;;;;;3.23;63.98;94634.78;4230523;28;20496;-70
2021/03/20 04:09:18;;;;;;;30.38;21.23;;;;;;;2.87;65.50;94631.41;4217198;28;20056;-71
2021/03/20 04:11:46;;;;;;;29.33;20.27;;;;;;;2.71;66.25;94635.25;4228624;28;20050;-73
2021/03/20 04:14:03;;;;;;;27.30;20.05;;;;;;;2.50;67.02;94630.72;4212274;28;20056;-71
2021/03/20 04:16:07;;;;;;;25.40;18.83;;;;;;;2.28;67.72;94628.88;4230137;28;20051;-71
2021/03/20 04:18:14;;;;;;;26.98;19.40;;;;;;;2.17;68.20;94636.56;4213679;28;20122;-70
2021/03/20 04:20:23;;;;;;;27.92;19.23;;;;;;;2.01;69.23;94644.59;4228987;28;20043;-70
2021/03/20 04:22:29;;;;;;;28.05;19.45;;;;;;;2.13;69.10;94651.47;4210268;28;20048;-69
2021/03/20 04:24:41;;;;;;;26.75;18.95;;;;;;;2.08;69.20;94643.22;4211771;28;20048;-72
2021/03/20 04:26:49;;;;;;;30.10;20.17;;;;;;;1.99;69.48;94642.09;4210469;28;20052;-71
2021/03/20 04:28:54;;;;;;;27.40;18.45;;;;;;;1.89;69.27;94648.03;4211782;28;20048;-69
2021/03/20 04:31:06;;;;;;;29.92;18.50;;;;;;;1.75;69.96;94646.41;4210112;28;20065;-83
2021/03/20 04:33:13;;;;;;;29.67;18.75;;;;;;;1.84;70.06;94648.34;4242812;27;20073;-80
2021/03/20 04:35:41;;;;;;;32.85;19.50;;;;;;;1.78;70.48;94649.59;4220710;28;20564;-83
2021/03/20 04:37:48;;;;;;;30.27;19.48;;;;;;;1.85;70.17;94642.28;4232702;28;20075;-69
2021/03/20 04:39:52;;;;;;;28.00;18.95;;;;;;;1.91;70.09;94646.16;4211274;28;20044;-70
2021/03/20 04:41:54;;;;;;;27.50;18.90;;;;;;;1.93;70.11;94646.88;4211162;28;20048;-71
2021/03/20 04:43:56;;;;;;;26.40;18.35;;;;;;;1.67;70.60;94638.38;4210233;28;20140;-71
2021/03/20 04:46:05;;;;;;;22.92;17.05;;;;;;;1.61;70.92;94635.31;4209095;28;20047;-71
2021/03/20 04:48:18;;;;;;;24.65;16.90;;;;;;;1.66;70.87;94639.28;4195110;28;20056;-70
2021/03/20 04:50:23;;;;;;;26.40;18.30;;;;;;;1.47;71.40;94638.00;4211289;28;20485;-71
2021/03/20 04:52:29;;;;;;;27.52;18.85;;;;;;;1.58;71.24;94639.84;4197743;28;20047;-71
2021/03/20 04:54:30;;;;;;;27.75;19.15;;;;;;;1.72;70.90;94636.28;4231624;27;20044;-71
2021/03/20 04:56:38;;;;;;;29.95;19.08;;;;;;;1.91;70.64;94628.91;4201337;28;20044;-70
2021/03/20 04:58:51;;;;;;;31.48;19.63;;;;;;;1.91;70.25;94636.66;4232968;27;20492;-70
2021/03/20 05:00:58;;;;;;;26.10;18.77;;;;;;;1.92;70.05;94638.31;4213341;28;20048;-71
2021/03/20 05:03:09;;;;;;;27.15;18.90;;;;;;;1.90;70.04;94635.00;4216402;28;20089;-71
2021/03/20 05:05:35;;;;;;;26.92;18.83;;;;;;;1.88;70.00;94644.63;4228496;28;20103;-71
2021/03/20 05:07:37;;;;;;;29.05;18.77;;;;;;;1.90;69.96;94641.94;4219688;28;20044;-70
2021/03/20 05:09:38;;;;;;;27.38;18.38;;;;;;;1.94;69.69;94645.97;4233137;27;20061;-70
2021/03/20 05:11:51;;;;;;;26.60;18.05;;;;;;;1.90;69.77;94647.09;4195930;28;20053;-70
2021/03/20 05:14:02;;;;;;;27.60;18.92;;;;;;;1.85;70.61;94657.78;4220742;28;20058;-71
2021/03/20 05:16:15;;;;;;;26.77;19.08;;;;;;;1.81;70.71;94651.97;4226370;28;20052;-70
2021/03/20 05:18:17;;;;;;;29.75;19.58;;;;;;;1.86;70.97;94658.59;4219167;28;20043;-72
2021/03/20 05:20:20;;;;;;;30.05;20.98;;;;;;;1.81;70.92;94653.75;4213943;28;20048;-71
2021/03/20 05:22:24;;;;;;;34.50;21.48;;;;;;;1.91;70.90;94665.06;4222560;28;20856;-71
2021/03/20 05:24:31;;;;;;;29.08;20.00;;;;;;;1.96;70.69;94662.19;4213504;28;20056;-72
2021/03/20 05:26:34;;;;;;;31.27;21.20;;;;;;;1.97;70.67;94654.31;4228334;28;20530;-75
2021/03/20 05:28:35;;;;;;;28.30;20.02;;;;;;;1.96;70.64;94657.03;4223853;28;20531;-72
2021/03/20 05:30:36;;;;;;;28.88;19.90;;;;;;;1.98;70.35;94658.56;4218320;28;20043;-70
2021/03/20 05:32:37;;;;;;;31.23;20.75;;;;;;;2.07;70.65;94659.66;4228698;28;20047;-71
2021/03/20 05:34:41;;;;;;;34.80;20.75;;;;;;;2.09;70.72;94654.38;4238276;28;20062;-84
2021/03/20 05:36:42;;;;;;;30.10;20.25;;;;;;;2.04;70.63;94657.28;4235090;28;20059;-84
2021/03/20 05:38:45;;;;;;;30.63;20.52;;;;;;;1.92;71.28;94658.16;4243163;28;20048;-81
2021/03/20 05:40:46;;;;;;;29.65;20.27;;;;;;;1.97;71.54;94654.31;4245716;28;20101;-82
2021/03/20 05:43:08;;;;;;;29.40;20.00;;;;;;;2.12;71.04;94659.34;4236669;27;20055;-84
2021/03/20 05:45:26;;;;;;;27.65;19.10;;;;;;;2.11;70.02;94661.09;4220053;28;20101;-84
2021/03/20 05:47:55;;;;;;;27.00;18.80;;;;;;;1.98;71.18;94649.94;4221186;28;20044;-70
2021/03/20 05:50:02;;;;;;;29.80;20.10;;;;;;;1.92;71.70;94653.81;4220754;28;20346;-71
2021/03/20 05:52:20;;;;;;;26.42;18.80;;;;;;;1.97;71.01;94654.31;4233659;28;20062;-82
2021/03/20 05:54:42;;;;;;;26.33;18.38;;;;;;;2.13;70.93;94655.78;4224061;28;20054;-86
2021/03/20 05:57:06;;;;;;;29.23;20.58;;;;;;;2.09;70.69;94657.78;4225837;28;20131;-85
2021/03/20 05:59:23;;;;;;;27.45;18.38;;;;;;;2.18;71.07;94656.31;4204854;28;20060;-83
2021/03/20 06:01:24;;;;;;;26.45;18.17;;;;;;;2.36;70.29;94657.56;4208041;28;20047;-83
2021/03/20 06:03:39;;;;;;;26.45;18.23;;;;;;;2.61;69.56;94655.81;4238746;28;20091;-86
2021/03/20 06:05:53;;;;;;;28.60;18.90;;;;;;;2.64;68.80;94650.41;4223698;28;20048;-85
2021/03/20 06:08:47;;;;;;;28.02;19.40;;;;;;;2.66;68.52;94649.34;4224681;28;20056;-84
2021/03/20 06:11:01;;;;;;;33.22;19.38;;;;;;;2.65;69.05;94645.13;4172370;28;20084;-85
2021/03/20 06:13:36;;;;;;;27.25;19.08;;;;;;;2.78;68.67;94642.47;4156669;28;20080;-84
2021/03/20 06:15:43;;;;;;;26.10;18.25;;;;;;;2.85;68.48;94643.66;4196342;28;20519;-84
2021/03/20 06:18:06;;;;;;;25.60;18.75;;;;;;;3.01;67.98;94642.50;4220024;28;20047;-86
2021/03/20 06:20:23;;;;;;;28.75;19.00;;;;;;;3.16;67.38;94643.13;4226284;28;20054;-83
2021/03/20 06:22:53;;;;;;;25.88;18.27;;;;;;;3.24;67.21;94644.19;4238249;28;20062;-84
2021/03/20 06:25:16;;;;;;;28.48;19.75;;;;;;;3.33;66.71;94647.03;4222635;28;20040;-85
2021/03/20 06:27:30;;;;;;;26.88;18.13;;;;;;;3.37;66.41;94646.69;4228707;28;20474;-83
2021/03/20 06:29:37;;;;;;;29.02;19.98;;;;;;;3.38;66.63;94650.13;4215335;28;20048;-85
2021/03/20 06:31:42;;;;;;;32.13;21.63;;;;;;;3.40;66.73;94640.44;4225785;28;20052;-84
2021/03/20 06:34:05;;;;;;;28.63;21.25;;;;;;;3.35;66.47;94639.97;4233199;28;20051;-83
2021/03/20 06:36:11;;;;;;;32.38;22.17;;;;;;;3.37;66.38;94649.25;4223101;28;20543;-70
2021/03/20 06:38:22;;;;;;;32.88;21.65;;;;;;;3.38;66.44;94652.69;4216867;28;20316;-72
2021/03/20 06:40:29;;;;;;;32.08;22.25;;;;;;;3.43;66.44;94645.41;4224451;28;20859;-71
2021/03/20 06:42:37;;;;;;;30.08;22.80;;;;;;;3.54;66.54;94647.16;4227820;28;20051;-72
2021/03/20 06:44:40;;;;;;;29.90;21.48;;;;;;;3.42;66.87;94651.50;4192815;28;20048;-71
2021/03/20 06:46:42;;;;;;;31.33;22.48;;;;;;;3.41;67.39;94644.69;4227570;28;20058;-72
2021/03/20 06:48:44;;;;;;;31.30;22.65;;;;;;;3.41;67.97;94649.88;4226672;28;20051;-70
2021/03/20 06:50:54;;;;;;;33.20;22.60;;;;;;;3.44;67.75;94645.28;4210247;28;20075;-70
2021/03/20 06:52:57;;;;;;;34.92;25.05;;;;;;;3.46;67.93;94646.00;4223162;28;20478;-84
2021/03/20 06:55:03;;;;;;;34.83;22.73;;;;;;;3.43;69.02;94643.63;4220339;28;20066;-84
2021/03/20 06:57:04;;;;;;;34.50;22.55;;;;;;;3.38;69.13;94653.53;4260960;27;20035;-84
2021/03/20 06:59:12;;;;;;;31.70;23.80;;;;;;;3.45;68.72;94652.09;4211697;28;20114;-85
2021/03/20 07:01:22;;;;;;;30.27;21.27;;;;;;;3.54;68.81;94655.75;4219938;28;20074;-84
2021/03/20 07:03:35;;;;;;;31.98;23.15;;;;;;;3.65;68.15;94653.16;4240640;27;20047;-85
2021/03/20 07:05:43;;;;;;;28.90;21.85;;;;;;;3.76;67.55;94661.88;4234736;28;20516;-84
2021/03/20 07:08:07;;;;;;;31.73;21.48;;;;;;;3.79;66.66;94664.25;4232052;28;20052;-71
2021/03/20 07:10:26;;;;;;;29.73;21.73;;;;;;;3.73;66.81;94656.94;4218181;28;20222;-72
2021/03/20 07:12:27;;;;;;;27.08;20.05;;;;;;;3.83;66.83;94655.25;4209484;28;20138;-71
2021/03/20 07:14:36;;;;;;;30.90;22.13;;;;;;;3.92;66.30;94657.16;4218007;28;20055;-70
2021/03/20 07:16:55;;;;;;;33.45;22.08;;;;;;;3.75;66.18;94652.47;4226739;28;20062;-74
2021/03/20 07:19:12;;;;;;;29.95;20.98;;;;;;;3.60;67.21;94652.69;4236776;28;20395;-72
2021/03/20 07:21:31;;;;;;;29.02;21.42;;;;;;;3.65;67.49;94647.97;4229105;28;20051;-86
2021/03/20 07:23:33;;;;;;;31.55;21.50;;;;;;;3.72;67.31;94653.50;4219026;28;20048;-84
2021/03/20 07:25:46;;;;;;;35.33;23.15;;;;;;;3.27;69.42;94653.50;4214840;28;20449;-84
2021/03/20 07:27:48;;;;;;;38.08;24.10;;;;;;;3.44;69.18;94650.47;4244226;28;20044;-81
2021/03/20 07:29:52;;;;;;;34.92;24.00;;;;;;;3.53;69.44;94654.13;4255675;28;20057;-85
2021/03/20 07:31:58;;;;;;;32.40;23.02;;;;;;;3.55;68.86;94657.41;4222418;28;20097;-87
2021/03/20 07:34:16;;;;;;;34.63;23.90;;;;;;;3.55;69.27;94644.47;4228720;28;20052;-87
2021/03/20 07:36:36;;;;;;;30.70;22.30;;;;;;;3.66;69.01;94649.63;4219416;28;20048;-85
2021/03/20 07:38:38;;;;;;;34.17;23.13;;;;;;;3.67;68.63;94648.69;4198341;28;20052;-72
2021/03/20 07:40:39;;;;;;;31.85;22.48;;;;;;;3.74;68.76;94648.22;4225263;28;20078;-71
2021/03/20 07:42:41;;;;;;;30.83;22.05;;;;;;;3.75;68.34;94652.47;4207805;28;20055;-70
2021/03/20 07:44:46;;;;;;;30.45;21.35;;;;;;;3.84;68.09;94654.34;4194245;28;20558;-71
2021/03/20 07:46:48;;;;;;;29.35;21.75;;;;;;;3.88;67.88;94658.34;4227397;28;20052;-71
2021/03/20 07:48:59;;;;;;;32.50;23.98;;;;;;;3.86;67.68;94652.44;4193979;28;20084;-71
2021/03/20 07:51:11;;;;;;;31.48;21.35;;;;;;;4.00;67.91;94652.22;4221373;28;20044;-71
2021/03/20 07:53:16;;;;;;;31.27;21.80;;;;;;;4.02;67.54;94650.31;4219764;28;20410;-71
2021/03/20 07:55:21;;;;;;;38.60;24.55;;;;;;;4.12;67.21;94663.38;4208414;28;20079;-71
2021/03/20 07:57:22;;;;;;;28.55;19.83;;;;;;;4.07;67.19;94647.38;4207468;28;20495;-71
2021/03/20 07:59:26;;;;;;;30.75;23.02;;;;;;;3.90;68.33;94653.88;4207596;28;20135;-71
2021/03/20 08:01:30;;;;;;;32.88;23.20;;;;;;;3.84;68.38;94657.75;4209609;28;20048;-71
2021/03/20 08:03:34;;;;;;;33.17;23.23;;;;;;;3.77;69.04;94658.34;4210248;28;20129;-71
2021/03/20 08:05:37;;;;;;;35.08;23.67;;;;;;;3.87;68.59;94657.53;4193815;28;20136;-71
2021/03/20 08:07:43;;;;;;;30.25;22.08;;;;;;;3.93;68.18;94665.75;4211744;28;20066;-72
2021/03/20 08:09:44;;;;;;;29.02;21.95;;;;;;;3.76;68.87;94667.88;4226189;27;20148;-71
2021/03/20 08:11:59;;;;;;;35.15;24.15;;;;;;;3.69;69.10;94664.94;4222610;28;20469;-70
2021/03/20 08:14:14;;;;;;;33.30;23.05;;;;;;;3.76;69.45;94673.06;4241392;27;20115;-72
2021/03/20 08:16:18;;;;;;;33.38;23.15;;;;;;;3.86;68.85;94663.63;4196242;28;20053;-72
2021/03/20 08:18:22;;;;;;;26.27;19.33;;;;;;;3.80;68.43;94671.06;4222176;28;20130;-72
2021/03/20 08:20:23;;;;;;;27.10;20.30;;;;;;;3.77;68.57;94668.72;4235983;27;20183;-70
2021/03/20 08:22:46;;;;;;;28.02;20.27;;;;;;;3.78;68.40;94667.75;4221515;27;20496;-71
2021/03/20 08:25:09;;;;;;;28.77;19.70;;;;;;;3.82;69.06;94679.53;4236819;27;20488;-71
2021/03/20 08:27:46;;;;;;;30.38;21.50;;;;;;;3.96;69.25;94675.88;4208912;28;20047;-72
2021/03/20 08:29:53;;;;;;;29.40;20.38;;;;;;;4.07;69.54;94681.06;4188703;27;20051;-71
2021/03/20 08:32:15;;;;;;;28.98;21.08;;;;;;;4.22;69.04;94679.84;4200985;28;20055;-72
2021/03/20 08:34:36;;;;;;;28.55;21.42;;;;;;;4.43;67.61;94679.09;4246798;27;20077;-71
2021/03/20 08:36:40;;;;;;;29.63;20.77;;;;;;;4.33;67.49;94678.19;4210903;28;20066;-70
2021/03/20 08:38:45;;;;;;;28.63;21.23;;;;;;;4.31;69.09;94680.91;4241656;27;20414;-71
2021/03/20 08:41:04;;;;;;;31.70;22.48;;;;;;;4.31;69.37;94681.72;4191487;28;20107;-72
2021/03/20 08:43:18;;;;;;;30.52;22.33;;;;;;;4.36;68.80;94685.72;4222229;28;20547;-85
2021/03/20 08:45:33;;;;;;;32.15;22.50;;;;;;;4.22;69.01;94684.22;4218776;28;20043;-86
2021/03/20 08:47:50;;;;;;;29.05;22.58;;;;;;;4.12;69.47;94681.50;4218201;28;20127;-85
2021/03/20 08:50:03;;;;;;;30.13;22.17;;;;;;;3.72;70.46;94678.59;4200921;28;20065;-86
2021/03/20 08:52:25;;;;;;;31.40;24.10;;;;;;;3.79;70.35;94674.63;4222271;28;20052;-85
2021/03/20 08:54:35;;;;;;;32.63;23.05;;;;;;;4.00;69.72;94672.94;4205715;28;20067;-85
2021/03/20 08:56:49;;;;;;;33.40;23.67;;;;;;;4.06;69.46;94669.84;4238288;28;20054;-84
2021/03/20 08:59:10;;;;;;;38.13;22.10;;;;;;;3.87;69.17;94669.63;4236988;28;20066;-84
2021/03/20 09:01:21;;;;;;;31.83;22.30;;;;;;;4.06;69.16;94674.22;4219745;28;20070;-83
2021/03/20 09:03:37;;;;;;;30.17;21.98;;;;;;;4.23;68.53;94670.31;4236512;28;20044;-86
2021/03/20 09:05:46;;;;;;;29.58;20.38;;;;;;;4.40;68.50;94668.97;4219547;28;20048;-85
2021/03/20 09:07:56;;;;;;;26.98;19.40;;;;;;;4.34;67.01;94683.25;4205343;28;20052;-86
2021/03/20 09:09:59;;;;;;;26.88;19.35;;;;;;;4.54;67.17;94676.47;4215989;28;20040;-85
2021/03/20 09:12:03;;;;;;;28.73;19.70;;;;;;;4.66;66.52;94679.84;4204694;28;20122;-85
2021/03/20 09:14:19;;;;;;;24.95;18.48;;;;;;;4.81;66.69;94681.19;4234200;28;20052;-84
2021/03/20 09:16:30;;;;;;;25.60;18.75;;;;;;;4.88;66.58;94669.38;4241846;28;20051;-85
2021/03/20 09:18:32;;;;;;;26.08;17.30;;;;;;;4.94;65.26;94662.84;4222856;28;20134;-82
2021/03/20 09:20:49;;;;;;;25.30;17.95;;;;;;;4.93;65.17;94672.41;4240400;28;20529;-85
2021/03/20 09:22:51;;;;;;;24.42;18.25;;;;;;;4.83;66.67;94670.69;4219251;28;20052;-86
2021/03/20 09:24:55;;;;;;;26.60;18.88;;;;;;;4.75;67.22;94662.72;4202139;28;20138;-86
2021/03/20 09:26:59;;;;;;;25.92;19.45;;;;;;;4.82;67.97;94667.28;4226705;28;20051;-85
2021/03/20 09:29:01;;;;;;;27.27;19.90;;;;;;;4.92;68.15;94655.19;4240038;28;20082;-84
2021/03/20 09:31:31;;;;;;;25.10;19.10;;;;;;;4.89;68.70;94665.00;4231995;28;20070;-85
2021/03/20 09:33:38;;;;;;;30.65;21.50;;;;;;;5.01;69.82;94663.19;4223139;27;20035;-87
2021/03/20 09:35:48;;;;;;;24.63;19.58;;;;;;;5.18;68.42;94664.38;4219204;28;20127;-86
2021/03/20 09:37:57;;;;;;;26.83;18.98;;;;;;;5.13;69.90;94665.59;4218425;28;20113;-87
2021/03/20 09:39:58;;;;;;;23.52;17.15;;;;;;;4.81;68.02;94660.44;4233376;28;20048;-85
2021/03/20 09:42:01;;;;;;;26.88;19.52;;;;;;;4.79;68.47;94653.72;4236359;28;20044;-87
2021/03/20 09:44:02;;;;;;;26.73;20.73;;;;;;;4.89;70.12;94650.25;4223355;28;20055;-87
2021/03/20 09:46:40;;;;;;;25.90;19.80;;;;;;;5.11;68.74;94649.31;4248176;27;20039;-85
2021/03/20 09:48:43;;;;;;;28.08;20.50;;;;;;;5.15;69.21;94642.09;4235850;28;20048;-86
2021/03/20 09:50:45;;;;;;;30.55;20.60;;;;;;;5.02;70.03;94629.31;4208509;28;20424;-85
2021/03/20 09:53:10;;;;;;;26.75;19.02;;;;;;;4.97;69.14;94638.41;4201067;28;20110;-85
2021/03/20 09:55:26;;;;;;;25.30;18.13;;;;;;;4.92;68.36;94637.00;4227179;28;20047;-85
2021/03/20 09:57:28;;;;;;;24.95;18.92;;;;;;;5.05;69.00;94639.44;4235381;28;20052;-84
2021/03/20 09:59:35;;;;;;;23.50;18.65;;;;;;;5.04;70.70;94635.19;4216927;28;20143;-87
2021/03/20 10:01:43;;;;;;;23.83;18.92;;;;;;;4.99;71.06;94639.97;4223431;28;20049;-85
2021/03/20 10:03:47;;;;;;;23.33;17.75;;;;;;;5.12;70.27;94637.16;4223276;28;20043;-86